sensor_id;sensor_type;location;lat;lon;timestamp;pressure;altitude;pressure_sealevel;temperature;humidity
40592;BME280;26301;42.832;23.918;2023-02-19T00:01:10;93327.00;;;5.82;68.11
40592;BME280;26301;42.832;23.918;2023-02-19T00:03:36;93321.28;;;5.80;67.80
40592;BME280;26301;42.832;23.918;2023-02-19T00:06:04;93310.28;;;5.72;68.15
40592;BME280;26301;42.832;23.918;2023-02-19T00:08:31;93300.22;;;5.64;69.06
40592;BME280;26301;42.832;23.918;2023-02-19T00:11:08;93316.00;;;5.68;69.92
40592;BME280;26301;42.832;23.918;2023-02-19T00:13:36;93298.69;;;5.50;70.40
40592;BME280;26301;42.832;23.918;2023-02-19T00:16:11;93306.19;;;5.38;70.67
40592;BME280;26301;42.832;23.918;2023-02-19T00:18:38;93305.22;;;5.33;71.36
40592;BME280;26301;42.832;23.918;2023-02-19T00:21:04;93326.28;;;5.28;71.72
40592;BME280;26301;42.832;23.918;2023-02-19T00:23:30;93328.06;;;5.21;72.40
40592;BME280;26301;42.832;23.918;2023-02-19T00:25:55;93307.19;;;4.97;73.00
40592;BME280;26301;42.832;23.918;2023-02-19T00:28:21;93321.56;;;4.92;73.72
40592;BME280;26301;42.832;23.918;2023-02-19T00:30:47;93305.78;;;4.68;73.78
40592;BME280;26301;42.832;23.918;2023-02-19T00:33:13;93302.03;;;4.64;74.48
40592;BME280;26301;42.832;23.918;2023-02-19T00:35:39;93307.16;;;4.57;74.78
40592;BME280;26301;42.832;23.918;2023-02-19T00:38:05;93293.94;;;4.47;75.10
40592;BME280;26301;42.832;23.918;2023-02-19T00:40:30;93304.38;;;4.46;76.31
40592;BME280;26301;42.832;23.918;2023-02-19T00:42:56;93325.03;;;4.51;76.57
40592;BME280;26301;42.832;23.918;2023-02-19T00:45:22;93316.16;;;4.40;76.63
40592;BME280;26301;42.832;23.918;2023-02-19T00:47:47;93318.28;;;4.30;77.28
40592;BME280;26301;42.832;23.918;2023-02-19T00:50:13;93306.22;;;4.17;77.84
40592;BME280;26301;42.832;23.918;2023-02-19T00:52:39;93301.66;;;3.99;78.93
40592;BME280;26301;42.832;23.918;2023-02-19T00:55:04;93303.81;;;4.02;78.90
40592;BME280;26301;42.832;23.918;2023-02-19T00:57:30;93316.19;;;3.99;79.73
40592;BME280;26301;42.832;23.918;2023-02-19T00:59:56;93307.91;;;3.90;80.07
40592;BME280;26301;42.832;23.918;2023-02-19T01:02:21;93295.44;;;3.74;80.29
40592;BME280;26301;42.832;23.918;2023-02-19T01:04:47;93315.72;;;3.82;80.18
40592;BME280;26301;42.832;23.918;2023-02-19T01:07:13;93296.16;;;3.61;80.90
40592;BME280;26301;42.832;23.918;2023-02-19T01:09:38;93304.38;;;3.56;81.70
40592;BME280;26301;42.832;23.918;2023-02-19T01:12:04;93314.38;;;3.51;82.15
40592;BME280;26301;42.832;23.918;2023-02-19T01:14:31;93304.09;;;3.38;82.53
40592;BME280;26301;42.832;23.918;2023-02-19T01:16:57;93314.03;;;3.26;83.96
40592;BME280;26301;42.832;23.918;2023-02-19T01:19:22;93300.94;;;3.08;84.33
40592;BME280;26301;42.832;23.918;2023-02-19T01:21:48;93305.06;;;3.09;84.90
40592;BME280;26301;42.832;23.918;2023-02-19T01:24:13;93317.44;;;3.12;84.40
40592;BME280;26301;42.832;23.918;2023-02-19T01:26:41;93315.59;;;2.99;84.47
40592;BME280;26301;42.832;23.918;2023-02-19T01:29:07;93331.34;;;2.81;85.27
40592;BME280;26301;42.832;23.918;2023-02-19T01:31:33;93344.44;;;2.78;86.54
40592;BME280;26301;42.832;23.918;2023-02-19T01:34:00;93331.28;;;2.53;87.59
40592;BME280;26301;42.832;23.918;2023-02-19T01:36:28;93357.31;;;2.70;87.06
40592;BME280;26301;42.832;23.918;2023-02-19T01:38:54;93358.72;;;2.72;87.29
40592;BME280;26301;42.832;23.918;2023-02-19T01:41:22;93337.06;;;2.62;87.01
40592;BME280;26301;42.832;23.918;2023-02-19T01:46:44;93344.81;;;2.54;87.77
40592;BME280;26301;42.832;23.918;2023-02-19T01:49:39;93362.00;;;2.66;87.58
40592;BME280;26301;42.832;23.918;2023-02-19T01:55:10;93351.94;;;2.43;87.97
40592;BME280;26301;42.832;23.918;2023-02-19T01:57:43;93355.38;;;2.50;88.55
40592;BME280;26301;42.832;23.918;2023-02-19T02:00:10;93358.69;;;2.51;88.31
40592;BME280;26301;42.832;23.918;2023-02-19T02:02:39;93337.38;;;2.37;87.95
40592;BME280;26301;42.832;23.918;2023-02-19T02:05:16;93338.09;;;2.31;88.13
40592;BME280;26301;42.832;23.918;2023-02-19T02:07:43;93355.16;;;2.31;88.83
40592;BME280;26301;42.832;23.918;2023-02-19T02:10:27;93336.88;;;2.27;88.83
40592;BME280;26301;42.832;23.918;2023-02-19T02:12:56;93321.31;;;2.22;88.83
40592;BME280;26301;42.832;23.918;2023-02-19T02:15:23;93338.38;;;2.21;88.97
40592;BME280;26301;42.832;23.918;2023-02-19T02:18:19;93347.44;;;2.24;88.71
40592;BME280;26301;42.832;23.918;2023-02-19T02:21:03;93347.72;;;2.14;88.93
40592;BME280;26301;42.832;23.918;2023-02-19T02:23:50;93327.94;;;2.01;89.08
40592;BME280;26301;42.832;23.918;2023-02-19T02:32:24;93350.63;;;2.11;88.07
40592;BME280;26301;42.832;23.918;2023-02-19T02:37:16;93303.13;;;1.74;88.54
40592;BME280;26301;42.832;23.918;2023-02-19T02:39:43;93347.91;;;1.98;88.89
40592;BME280;26301;42.832;23.918;2023-02-19T02:42:10;93330.69;;;1.85;89.12
40592;BME280;26301;42.832;23.918;2023-02-19T02:44:56;93353.78;;;1.98;89.10
40592;BME280;26301;42.832;23.918;2023-02-19T02:47:46;93350.22;;;1.93;89.16
40592;BME280;26301;42.832;23.918;2023-02-19T02:50:20;93344.75;;;1.81;89.12
40592;BME280;26301;42.832;23.918;2023-02-19T02:52:50;93338.44;;;1.77;88.97
40592;BME280;26301;42.832;23.918;2023-02-19T02:55:41;93342.72;;;1.76;88.58
40592;BME280;26301;42.832;23.918;2023-02-19T02:58:09;93340.38;;;1.75;88.72
40592;BME280;26301;42.832;23.918;2023-02-19T03:00:36;93364.78;;;1.84;89.20
40592;BME280;26301;42.832;23.918;2023-02-19T03:03:25;93379.78;;;1.79;89.40
40592;BME280;26301;42.832;23.918;2023-02-19T03:05:54;93365.50;;;1.78;89.58
40592;BME280;26301;42.832;23.918;2023-02-19T03:08:27;93371.28;;;1.72;90.31
40592;BME280;26301;42.832;23.918;2023-02-19T03:11:13;93359.00;;;1.75;90.57
40592;BME280;26301;42.832;23.918;2023-02-19T03:14:22;93372.50;;;1.76;90.44
40592;BME280;26301;42.832;23.918;2023-02-19T03:17:21;93372.94;;;1.65;91.83
40592;BME280;26301;42.832;23.918;2023-02-19T03:20:10;93373.19;;;1.55;92.00
40592;BME280;26301;42.832;23.918;2023-02-19T03:22:37;93384.69;;;1.51;92.84
40592;BME280;26301;42.832;23.918;2023-02-19T03:27:53;93368.88;;;1.41;92.41
40592;BME280;26301;42.832;23.918;2023-02-19T03:30:22;93373.19;;;1.40;92.64
40592;BME280;26301;42.832;23.918;2023-02-19T03:35:36;93389.84;;;1.43;92.20
40592;BME280;26301;42.832;23.918;2023-02-19T03:38:24;93420.00;;;1.54;92.22
40592;BME280;26301;42.832;23.918;2023-02-19T03:44:06;93387.91;;;1.30;94.56
40592;BME280;26301;42.832;23.918;2023-02-19T03:46:59;93402.16;;;1.39;94.79
40592;BME280;26301;42.832;23.918;2023-02-19T03:55:12;93408.53;;;1.35;95.76
40592;BME280;26301;42.832;23.918;2023-02-19T04:03:28;93415.25;;;1.51;95.14
40592;BME280;26301;42.832;23.918;2023-02-19T04:06:00;93419.81;;;1.55;94.24
40592;BME280;26301;42.832;23.918;2023-02-19T04:08:27;93422.00;;;1.58;93.88
40592;BME280;26301;42.832;23.918;2023-02-19T04:10:54;93431.94;;;1.68;92.88
40592;BME280;26301;42.832;23.918;2023-02-19T04:13:29;93415.50;;;1.56;92.38
40592;BME280;26301;42.832;23.918;2023-02-19T04:16:00;93427.47;;;1.70;92.13
40592;BME280;26301;42.832;23.918;2023-02-19T04:18:30;93405.31;;;1.56;91.85
40592;BME280;26301;42.832;23.918;2023-02-19T04:20:58;93412.88;;;1.64;92.25
40592;BME280;26301;42.832;23.918;2023-02-19T04:23:27;93396.75;;;1.57;92.78
40592;BME280;26301;42.832;23.918;2023-02-19T04:25:58;93396.19;;;1.47;93.92
40592;BME280;26301;42.832;23.918;2023-02-19T04:28:24;93414.44;;;1.50;94.38
40592;BME280;26301;42.832;23.918;2023-02-19T04:30:50;93421.84;;;1.60;94.85
40592;BME280;26301;42.832;23.918;2023-02-19T04:33:15;93403.91;;;1.53;94.89
40592;BME280;26301;42.832;23.918;2023-02-19T04:35:41;93393.66;;;1.62;95.30
40592;BME280;26301;42.832;23.918;2023-02-19T04:38:08;93416.69;;;1.83;95.08
40592;BME280;26301;42.832;23.918;2023-02-19T04:40:33;93422.75;;;1.97;94.23
40592;BME280;26301;42.832;23.918;2023-02-19T04:42:59;93432.16;;;2.11;93.72
40592;BME280;26301;42.832;23.918;2023-02-19T04:45:24;93407.19;;;2.06;92.94
40592;BME280;26301;42.832;23.918;2023-02-19T04:47:50;93423.34;;;2.28;92.33
40592;BME280;26301;42.832;23.918;2023-02-19T04:50:16;93424.75;;;2.31;91.70
40592;BME280;26301;42.832;23.918;2023-02-19T04:52:42;93434.34;;;2.44;90.89
40592;BME280;26301;42.832;23.918;2023-02-19T04:55:07;93444.19;;;2.47;90.71
40592;BME280;26301;42.832;23.918;2023-02-19T04:57:33;93437.06;;;2.42;90.60
40592;BME280;26301;42.832;23.918;2023-02-19T04:59:59;93442.69;;;2.38;90.47
40592;BME280;26301;42.832;23.918;2023-02-19T05:02:24;93433.03;;;2.33;90.07
40592;BME280;26301;42.832;23.918;2023-02-19T05:04:50;93450.78;;;2.41;90.10
40592;BME280;26301;42.832;23.918;2023-02-19T05:07:15;93453.78;;;2.30;90.79
40592;BME280;26301;42.832;23.918;2023-02-19T05:09:41;93435.78;;;2.17;90.51
40592;BME280;26301;42.832;23.918;2023-02-19T05:12:07;93450.53;;;2.21;90.98
40592;BME280;26301;42.832;23.918;2023-02-19T05:14:32;93447.88;;;2.29;91.11
40592;BME280;26301;42.832;23.918;2023-02-19T05:16:58;93449.19;;;2.40;90.20
40592;BME280;26301;42.832;23.918;2023-02-19T05:19:23;93445.69;;;2.41;90.09
40592;BME280;26301;42.832;23.918;2023-02-19T05:21:49;93453.56;;;2.46;90.13
40592;BME280;26301;42.832;23.918;2023-02-19T05:24:14;93463.75;;;2.61;89.58
40592;BME280;26301;42.832;23.918;2023-02-19T05:26:40;93457.88;;;2.61;89.93
40592;BME280;26301;42.832;23.918;2023-02-19T05:29:06;93465.44;;;2.69;89.36
40592;BME280;26301;42.832;23.918;2023-02-19T05:31:31;93469.63;;;2.77;88.91
40592;BME280;26301;42.832;23.918;2023-02-19T05:34:00;93476.03;;;2.87;88.04
40592;BME280;26301;42.832;23.918;2023-02-19T05:36:26;93470.94;;;2.87;88.27
40592;BME280;26301;42.832;23.918;2023-02-19T05:38:55;93484.19;;;2.83;88.14
40592;BME280;26301;42.832;23.918;2023-02-19T05:41:24;93480.88;;;2.82;87.53
40592;BME280;26301;42.832;23.918;2023-02-19T05:43:50;93494.22;;;2.99;87.63
40592;BME280;26301;42.832;23.918;2023-02-19T05:46:19;93486.19;;;3.02;87.14
40592;BME280;26301;42.832;23.918;2023-02-19T05:48:46;93480.53;;;3.07;86.86
40592;BME280;26301;42.832;23.918;2023-02-19T05:51:15;93487.47;;;3.13;87.06
40592;BME280;26301;42.832;23.918;2023-02-19T05:53:43;93477.78;;;3.23;86.31
40592;BME280;26301;42.832;23.918;2023-02-19T05:56:39;93486.34;;;3.37;85.67
40592;BME280;26301;42.832;23.918;2023-02-19T05:59:07;93492.06;;;3.39;86.04
40592;BME280;26301;42.832;23.918;2023-02-19T06:01:38;93501.19;;;3.48;85.62
40592;BME280;26301;42.832;23.918;2023-02-19T06:04:04;93498.31;;;3.58;85.04
40592;BME280;26301;42.832;23.918;2023-02-19T06:06:29;93494.91;;;3.72;84.29
40592;BME280;26301;42.832;23.918;2023-02-19T06:08:55;93481.59;;;3.77;83.51
40592;BME280;26301;42.832;23.918;2023-02-19T06:11:21;93485.22;;;3.89;83.34
40592;BME280;26301;42.832;23.918;2023-02-19T06:13:47;93484.47;;;3.95;83.38
40592;BME280;26301;42.832;23.918;2023-02-19T06:16:14;93490.06;;;4.12;83.11
40592;BME280;26301;42.832;23.918;2023-02-19T06:18:42;93498.22;;;4.22;82.83
40592;BME280;26301;42.832;23.918;2023-02-19T06:21:09;93500.06;;;4.35;82.55
40592;BME280;26301;42.832;23.918;2023-02-19T06:23:35;93502.50;;;4.50;82.52
40592;BME280;26301;42.832;23.918;2023-02-19T06:26:12;93508.44;;;4.57;82.35
40592;BME280;26301;42.832;23.918;2023-02-19T06:28:39;93504.34;;;4.63;82.53
40592;BME280;26301;42.832;23.918;2023-02-19T06:31:06;93510.13;;;4.78;81.89
40592;BME280;26301;42.832;23.918;2023-02-19T06:33:33;93516.13;;;4.98;81.77
40592;BME280;26301;42.832;23.918;2023-02-19T06:36:00;93508.44;;;4.98;81.08
40592;BME280;26301;42.832;23.918;2023-02-19T06:38:27;93515.59;;;5.16;80.56
40592;BME280;26301;42.832;23.918;2023-02-19T06:40:52;93488.19;;;5.17;80.76
40592;BME280;26301;42.832;23.918;2023-02-19T06:43:18;93519.00;;;5.50;81.11
40592;BME280;26301;42.832;23.918;2023-02-19T06:45:44;93501.69;;;5.52;80.44
40592;BME280;26301;42.832;23.918;2023-02-19T06:48:09;93513.94;;;5.77;80.87
40592;BME280;26301;42.832;23.918;2023-02-19T06:50:35;93519.06;;;5.83;79.43
40592;BME280;26301;42.832;23.918;2023-02-19T06:53:01;93519.09;;;6.03;80.15
40592;BME280;26301;42.832;23.918;2023-02-19T06:55:26;93521.84;;;6.22;78.17
40592;BME280;26301;42.832;23.918;2023-02-19T06:57:52;93496.59;;;6.25;77.16
40592;BME280;26301;42.832;23.918;2023-02-19T07:00:18;93514.09;;;6.55;76.07
40592;BME280;26301;42.832;23.918;2023-02-19T07:02:43;93498.50;;;6.63;74.41
40592;BME280;26301;42.832;23.918;2023-02-19T07:05:09;93499.81;;;6.79;72.25
40592;BME280;26301;42.832;23.918;2023-02-19T07:07:35;93497.75;;;7.01;72.24
40592;BME280;26301;42.832;23.918;2023-02-19T07:10:01;93509.75;;;7.20;75.48
40592;BME280;26301;42.832;23.918;2023-02-19T07:12:27;93491.53;;;7.22;74.59
40592;BME280;26301;42.832;23.918;2023-02-19T07:14:52;93507.28;;;7.39;76.79
40592;BME280;26301;42.832;23.918;2023-02-19T07:17:18;93522.75;;;7.64;71.59
40592;BME280;26301;42.832;23.918;2023-02-19T07:19:43;93515.56;;;7.72;67.65
40592;BME280;26301;42.832;23.918;2023-02-19T07:22:09;93515.44;;;7.92;65.44
40592;BME280;26301;42.832;23.918;2023-02-19T07:24:34;93498.16;;;7.99;66.24
40592;BME280;26301;42.832;23.918;2023-02-19T07:27:00;93497.19;;;8.25;62.95
40592;BME280;26301;42.832;23.918;2023-02-19T07:29:25;93462.50;;;8.28;62.09
40592;BME280;26301;42.832;23.918;2023-02-19T07:31:51;93503.41;;;8.80;58.92
40592;BME280;26301;42.832;23.918;2023-02-19T07:34:17;93514.19;;;9.07;59.56
40592;BME280;26301;42.832;23.918;2023-02-19T07:36:42;93491.22;;;9.24;56.63
40592;BME280;26301;42.832;23.918;2023-02-19T07:39:11;93507.13;;;9.51;57.19
40592;BME280;26301;42.832;23.918;2023-02-19T07:41:37;93490.81;;;9.69;56.68
40592;BME280;26301;42.832;23.918;2023-02-19T07:44:03;93490.38;;;9.83;57.65
40592;BME280;26301;42.832;23.918;2023-02-19T07:46:28;93473.47;;;9.88;56.50
40592;BME280;26301;42.832;23.918;2023-02-19T07:48:54;93484.16;;;10.15;56.18
40592;BME280;26301;42.832;23.918;2023-02-19T07:51:21;93492.91;;;10.25;55.65
40592;BME280;26301;42.832;23.918;2023-02-19T07:53:48;93505.50;;;10.34;54.51
40592;BME280;26301;42.832;23.918;2023-02-19T07:56:18;93496.66;;;10.41;54.73
40592;BME280;26301;42.832;23.918;2023-02-19T07:58:44;93482.28;;;10.45;56.14
40592;BME280;26301;42.832;23.918;2023-02-19T08:01:14;93508.75;;;10.64;55.46
40592;BME280;26301;42.832;23.918;2023-02-19T08:03:40;93490.66;;;10.76;54.60
40592;BME280;26301;42.832;23.918;2023-02-19T08:06:05;93500.63;;;10.96;53.73
40592;BME280;26301;42.832;23.918;2023-02-19T08:08:31;93479.28;;;10.89;53.22
40592;BME280;26301;42.832;23.918;2023-02-19T08:11:01;93475.25;;;10.93;53.11
40592;BME280;26301;42.832;23.918;2023-02-19T08:13:50;93490.28;;;11.08;54.75
40592;BME280;26301;42.832;23.918;2023-02-19T08:16:17;93484.19;;;11.14;54.67
40592;BME280;26301;42.832;23.918;2023-02-19T08:18:45;93504.09;;;11.42;54.81
40592;BME280;26301;42.832;23.918;2023-02-19T08:21:12;93483.72;;;11.45;53.69
40592;BME280;26301;42.832;23.918;2023-02-19T08:23:38;93510.09;;;11.59;51.80
40592;BME280;26301;42.832;23.918;2023-02-19T08:26:04;93466.50;;;11.23;52.18
40592;BME280;26301;42.832;23.918;2023-02-19T08:28:31;93484.50;;;11.46;51.75
40592;BME280;26301;42.832;23.918;2023-02-19T08:31:03;93487.97;;;11.52;50.63
40592;BME280;26301;42.832;23.918;2023-02-19T08:33:29;93505.50;;;11.61;51.30
40592;BME280;26301;42.832;23.918;2023-02-19T08:35:55;93490.13;;;11.43;49.92
40592;BME280;26301;42.832;23.918;2023-02-19T08:38:21;93500.00;;;11.46;50.68
40592;BME280;26301;42.832;23.918;2023-02-19T08:40:47;93487.47;;;11.38;49.93
40592;BME280;26301;42.832;23.918;2023-02-19T08:43:15;93488.41;;;11.32;51.26
40592;BME280;26301;42.832;23.918;2023-02-19T08:45:43;93494.84;;;11.46;50.65
40592;BME280;26301;42.832;23.918;2023-02-19T08:48:09;93478.47;;;11.40;51.52
40592;BME280;26301;42.832;23.918;2023-02-19T08:50:36;93487.03;;;11.58;51.46
40592;BME280;26301;42.832;23.918;2023-02-19T08:53:02;93491.75;;;11.61;50.81
40592;BME280;26301;42.832;23.918;2023-02-19T08:55:28;93481.97;;;11.63;51.31
40592;BME280;26301;42.832;23.918;2023-02-19T08:57:54;93467.84;;;11.54;52.00
40592;BME280;26301;42.832;23.918;2023-02-19T09:00:20;93475.13;;;11.57;51.77
40592;BME280;26301;42.832;23.918;2023-02-19T09:02:47;93476.69;;;11.58;51.77
40592;BME280;26301;42.832;23.918;2023-02-19T09:05:13;93461.09;;;11.53;50.67
40592;BME280;26301;42.832;23.918;2023-02-19T09:07:39;93478.13;;;11.65;52.41
40592;BME280;26301;42.832;23.918;2023-02-19T09:10:05;93469.91;;;11.68;51.40
40592;BME280;26301;42.832;23.918;2023-02-19T09:12:31;93463.88;;;11.80;50.90
40592;BME280;26301;42.832;23.918;2023-02-19T09:14:58;93462.75;;;11.76;49.77
40592;BME280;26301;42.832;23.918;2023-02-19T09:17:25;93477.28;;;11.77;50.05
40592;BME280;26301;42.832;23.918;2023-02-19T09:19:51;93457.06;;;11.74;51.02
40592;BME280;26301;42.832;23.918;2023-02-19T09:22:16;93467.41;;;11.74;49.50
40592;BME280;26301;42.832;23.918;2023-02-19T09:24:43;93479.94;;;11.82;49.76
40592;BME280;26301;42.832;23.918;2023-02-19T09:27:14;93475.94;;;11.74;50.68
40592;BME280;26301;42.832;23.918;2023-02-19T09:29:39;93481.28;;;11.84;49.62
40592;BME280;26301;42.832;23.918;2023-02-19T09:32:05;93472.16;;;11.82;50.68
40592;BME280;26301;42.832;23.918;2023-02-19T09:34:30;93445.28;;;11.83;51.32
40592;BME280;26301;42.832;23.918;2023-02-19T09:36:56;93454.50;;;12.07;49.93
40592;BME280;26301;42.832;23.918;2023-02-19T09:39:22;93465.25;;;11.99;51.05
40592;BME280;26301;42.832;23.918;2023-02-19T09:41:50;93462.66;;;11.99;50.84
40592;BME280;26301;42.832;23.918;2023-02-19T09:44:35;93468.13;;;12.03;50.79
40592;BME280;26301;42.832;23.918;2023-02-19T09:47:06;93474.09;;;12.20;49.41
40592;BME280;26301;42.832;23.918;2023-02-19T09:49:35;93465.16;;;12.11;49.57
40592;BME280;26301;42.832;23.918;2023-02-19T09:52:37;93456.34;;;12.29;52.56
40592;BME280;26301;42.832;23.918;2023-02-19T09:55:14;93462.72;;;12.38;49.71
40592;BME280;26301;42.832;23.918;2023-02-19T09:57:43;93458.66;;;12.25;50.05
40592;BME280;26301;42.832;23.918;2023-02-19T10:00:20;93463.00;;;12.42;49.76
40592;BME280;26301;42.832;23.918;2023-02-19T10:02:46;93448.50;;;12.41;49.92
40592;BME280;26301;42.832;23.918;2023-02-19T10:05:15;93455.00;;;12.43;49.03
40592;BME280;26301;42.832;23.918;2023-02-19T10:07:44;93460.09;;;12.55;49.13
40592;BME280;26301;42.832;23.918;2023-02-19T10:12:42;93442.81;;;12.61;48.23
40592;BME280;26301;42.832;23.918;2023-02-19T10:18:08;93422.91;;;12.66;48.05
40592;BME280;26301;42.832;23.918;2023-02-19T10:20:33;93422.38;;;12.86;50.52
40592;BME280;26301;42.832;23.918;2023-02-19T10:23:02;93418.81;;;12.92;47.72
40592;BME280;26301;42.832;23.918;2023-02-19T10:25:29;93404.78;;;12.88;48.87
40592;BME280;26301;42.832;23.918;2023-02-19T10:27:59;93413.94;;;12.96;48.85
40592;BME280;26301;42.832;23.918;2023-02-19T10:30:34;93418.53;;;12.89;48.35
40592;BME280;26301;42.832;23.918;2023-02-19T10:33:09;93410.88;;;12.77;48.22
40592;BME280;26301;42.832;23.918;2023-02-19T10:35:38;93360.44;;;12.41;48.10
40592;BME280;26301;42.832;23.918;2023-02-19T10:38:16;93384.59;;;12.68;48.93
40592;BME280;26301;42.832;23.918;2023-02-19T10:40:46;93380.72;;;12.71;48.25
40592;BME280;26301;42.832;23.918;2023-02-19T10:43:29;93387.06;;;12.80;48.09
40592;BME280;26301;42.832;23.918;2023-02-19T10:46:00;93387.06;;;12.80;48.98
40592;BME280;26301;42.832;23.918;2023-02-19T10:48:35;93363.19;;;12.78;47.21
40592;BME280;26301;42.832;23.918;2023-02-19T10:51:08;93358.59;;;12.63;49.11
40592;BME280;26301;42.832;23.918;2023-02-19T10:53:46;93364.13;;;12.67;47.26
40592;BME280;26301;42.832;23.918;2023-02-19T10:56:25;93353.69;;;12.62;47.44
40592;BME280;26301;42.832;23.918;2023-02-19T10:58:52;93356.50;;;12.82;48.91
40592;BME280;26301;42.832;23.918;2023-02-19T11:01:23;93352.59;;;12.79;47.91
40592;BME280;26301;42.832;23.918;2023-02-19T11:04:14;93351.19;;;12.72;47.73
40592;BME280;26301;42.832;23.918;2023-02-19T11:06:40;93338.22;;;12.72;48.18
40592;BME280;26301;42.832;23.918;2023-02-19T11:09:26;93338.78;;;12.74;47.19
40592;BME280;26301;42.832;23.918;2023-02-19T11:11:54;93320.88;;;12.72;50.00
40592;BME280;26301;42.832;23.918;2023-02-19T11:14:23;93328.34;;;12.69;48.20
40592;BME280;26301;42.832;23.918;2023-02-19T11:16:54;93319.41;;;12.81;48.60
40592;BME280;26301;42.832;23.918;2023-02-19T11:19:40;93313.78;;;12.90;47.48
40592;BME280;26301;42.832;23.918;2023-02-19T11:22:37;93327.09;;;12.98;48.46
40592;BME280;26301;42.832;23.918;2023-02-19T11:28:04;93322.56;;;13.11;48.68
40592;BME280;26301;42.832;23.918;2023-02-19T11:30:40;93299.84;;;13.23;47.72
40592;BME280;26301;42.832;23.918;2023-02-19T11:35:51;93310.03;;;13.30;45.73
40592;BME280;26301;42.832;23.918;2023-02-19T11:38:18;93298.59;;;13.25;48.84
40592;BME280;26301;42.832;23.918;2023-02-19T11:41:07;93299.41;;;13.31;47.62
40592;BME280;26301;42.832;23.918;2023-02-19T11:46:24;93289.78;;;13.26;46.01
40592;BME280;26301;42.832;23.918;2023-02-19T11:57:43;93280.63;;;13.19;45.12
40592;BME280;26301;42.832;23.918;2023-02-19T12:00:27;93283.03;;;13.25;45.42
40592;BME280;26301;42.832;23.918;2023-02-19T12:25:17;93227.41;;;13.48;45.71
40592;BME280;26301;42.832;23.918;2023-02-19T12:28:03;93223.56;;;13.51;42.51
40592;BME280;26301;42.832;23.918;2023-02-19T12:38:42;93201.34;;;13.81;43.02
40592;BME280;26301;42.832;23.918;2023-02-19T12:41:24;93176.50;;;13.90;41.28
40592;BME280;26301;42.832;23.918;2023-02-19T12:43:58;93190.03;;;14.02;41.75
40592;BME280;26301;42.832;23.918;2023-02-19T12:46:32;93183.81;;;14.03;42.26
40592;BME280;26301;42.832;23.918;2023-02-19T12:56:43;93167.94;;;13.94;41.83
40592;BME280;26301;42.832;23.918;2023-02-19T12:59:27;93177.31;;;14.01;41.25
40592;BME280;26301;42.832;23.918;2023-02-19T13:06:57;93165.34;;;14.05;42.12
40592;BME280;26301;42.832;23.918;2023-02-19T13:12:22;93139.38;;;14.05;41.72
40592;BME280;26301;42.832;23.918;2023-02-19T13:14:57;93153.44;;;14.09;41.04
40592;BME280;26301;42.832;23.918;2023-02-19T13:17:46;93147.97;;;14.00;41.41
40592;BME280;26301;42.832;23.918;2023-02-19T13:20:23;93122.47;;;13.82;41.18
40592;BME280;26301;42.832;23.918;2023-02-19T13:23:19;93136.81;;;14.00;41.99
40592;BME280;26301;42.832;23.918;2023-02-19T13:37:20;93116.75;;;13.85;41.04
40592;BME280;26301;42.832;23.918;2023-02-19T13:39:53;93120.16;;;13.90;40.23
40592;BME280;26301;42.832;23.918;2023-02-19T13:42:31;93103.78;;;13.85;40.38
40592;BME280;26301;42.832;23.918;2023-02-19T13:44:58;93103.28;;;13.88;41.51
40592;BME280;26301;42.832;23.918;2023-02-19T13:50:21;93100.91;;;13.81;41.77
40592;BME280;26301;42.832;23.918;2023-02-19T13:52:47;93104.03;;;13.78;47.12
40592;BME280;26301;42.832;23.918;2023-02-19T14:01:09;93091.16;;;13.36;44.77
40592;BME280;26301;42.832;23.918;2023-02-19T14:06:11;93082.28;;;13.26;47.33
40592;BME280;26301;42.832;23.918;2023-02-19T14:14:28;93086.09;;;13.19;47.75
40592;BME280;26301;42.832;23.918;2023-02-19T14:25:18;93079.97;;;13.30;47.40
40592;BME280;26301;42.832;23.918;2023-02-19T14:27:48;93081.69;;;13.19;48.46
40592;BME280;26301;42.832;23.918;2023-02-19T14:30:14;93072.88;;;13.15;46.21
40592;BME280;26301;42.832;23.918;2023-02-19T14:32:40;93057.78;;;13.07;50.95
40592;BME280;26301;42.832;23.918;2023-02-19T14:35:17;93060.03;;;12.93;51.33
40592;BME280;26301;42.832;23.918;2023-02-19T14:37:44;93057.13;;;12.79;50.06
40592;BME280;26301;42.832;23.918;2023-02-19T14:40:18;93062.19;;;12.64;52.07
40592;BME280;26301;42.832;23.918;2023-02-19T14:42:46;93057.19;;;12.52;52.27
40592;BME280;26301;42.832;23.918;2023-02-19T14:45:14;93053.94;;;12.35;52.04
40592;BME280;26301;42.832;23.918;2023-02-19T14:47:42;93054.38;;;12.22;53.13
40592;BME280;26301;42.832;23.918;2023-02-19T14:50:14;93034.69;;;11.88;55.64
40592;BME280;26301;42.832;23.918;2023-02-19T14:52:49;93066.06;;;11.97;56.76
40592;BME280;26301;42.832;23.918;2023-02-19T14:55:33;93059.94;;;11.81;56.17
40592;BME280;26301;42.832;23.918;2023-02-19T14:58:21;93082.44;;;11.81;55.97
40592;BME280;26301;42.832;23.918;2023-02-19T15:00:49;93072.06;;;11.54;55.58
40592;BME280;26301;42.832;23.918;2023-02-19T15:03:33;93075.38;;;11.27;54.31
40592;BME280;26301;42.832;23.918;2023-02-19T15:06:06;93076.22;;;11.11;55.86
40592;BME280;26301;42.832;23.918;2023-02-19T15:08:38;93034.19;;;10.60;55.14
40592;BME280;26301;42.832;23.918;2023-02-19T15:11:22;93075.66;;;10.70;56.22
40592;BME280;26301;42.832;23.918;2023-02-19T15:14:01;93068.56;;;10.43;55.54
40592;BME280;26301;42.832;23.918;2023-02-19T15:16:29;93066.50;;;10.28;58.66
40592;BME280;26301;42.832;23.918;2023-02-19T15:18:57;93066.09;;;10.03;56.74
40592;BME280;26301;42.832;23.918;2023-02-19T15:21:33;93079.25;;;9.90;56.79
40592;BME280;26301;42.832;23.918;2023-02-19T15:24:03;93080.34;;;9.77;56.37
40592;BME280;26301;42.832;23.918;2023-02-19T15:26:38;93067.63;;;9.58;56.59
40592;BME280;26301;42.832;23.918;2023-02-19T15:29:12;93083.00;;;9.53;56.64
40592;BME280;26301;42.832;23.918;2023-02-19T15:32:12;93085.28;;;9.38;57.19